createdAt,value
2019-01-24T00:00:19.122Z,-4.80
2019-01-24T00:02:47.715Z,-4.80
2019-01-24T00:05:16.359Z,-4.80
2019-01-24T00:07:44.993Z,-4.80
2019-01-24T00:10:13.583Z,-4.80
2019-01-24T00:12:42.171Z,-4.80
2019-01-24T00:15:11.183Z,-4.80
2019-01-24T00:17:39.911Z,-4.70
2019-01-24T00:20:11.021Z,-4.70
2019-01-24T00:22:39.603Z,-4.70
2019-01-24T00:25:10.011Z,-4.70
2019-01-24T00:27:38.675Z,-4.70
2019-01-24T00:30:14.967Z,-4.70
2019-01-24T00:32:43.627Z,-4.70
2019-01-24T00:35:12.537Z,-4.70
2019-01-24T00:37:41.196Z,-4.70
2019-01-24T00:40:18.596Z,-4.70
2019-01-24T00:42:47.188Z,-4.70
2019-01-24T00:45:16.191Z,-4.70
2019-01-24T00:47:44.844Z,-4.70
2019-01-24T00:50:15.159Z,-4.70
2019-01-24T00:52:43.827Z,-4.70
2019-01-24T00:55:14.423Z,-4.70
2019-01-24T00:57:43.160Z,-4.70
2019-01-24T01:00:17.839Z,-4.70
2019-01-24T01:02:46.871Z,-4.70
2019-01-24T01:05:15.807Z,-4.70
2019-01-24T01:07:44.472Z,-4.70
2019-01-24T01:10:14.584Z,-4.60
2019-01-24T01:12:43.410Z,-4.60
2019-01-24T01:15:17.458Z,-4.60
2019-01-24T01:17:46.184Z,-4.60
2019-01-24T01:20:19.892Z,-4.60
2019-01-24T01:22:48.550Z,-4.60
2019-01-24T01:25:17.187Z,-4.60
2019-01-24T01:27:45.927Z,-4.60
2019-01-24T01:30:17.214Z,-4.60
2019-01-24T01:32:45.803Z,-4.60
2019-01-24T01:35:14.449Z,-4.60
2019-01-24T01:37:43.152Z,-4.60
2019-01-24T01:40:14.383Z,-4.60
2019-01-24T01:42:43.019Z,-4.60
2019-01-24T01:45:14.463Z,-4.60
2019-01-24T01:47:43.308Z,-4.50
2019-01-24T01:50:17.703Z,-4.60
2019-01-24T01:52:46.336Z,-4.50
2019-01-24T01:55:15.002Z,-4.60
2019-01-24T01:57:43.563Z,-4.60
2019-01-24T02:00:15.267Z,-4.50
2019-01-24T02:02:43.839Z,-4.50
2019-01-24T02:05:13.167Z,-4.50
2019-01-24T02:07:41.731Z,-4.50
2019-01-24T02:10:16.343Z,-4.50
2019-01-24T02:12:50.952Z,-4.50
2019-01-24T02:15:19.982Z,-4.50
2019-01-24T02:17:48.724Z,-4.40
2019-01-24T02:20:24.505Z,-4.40
2019-01-24T02:22:53.160Z,-4.40
2019-01-24T02:25:21.889Z,-4.40
2019-01-24T02:27:50.519Z,-4.40
2019-01-24T02:30:24.305Z,-4.40
2019-01-24T02:32:52.939Z,-4.40
2019-01-24T02:35:21.613Z,-4.40
2019-01-24T02:37:50.307Z,-4.40
2019-01-24T02:40:18.968Z,-4.40
2019-01-24T02:42:47.599Z,-4.40
2019-01-24T02:45:22.084Z,-4.40
2019-01-24T02:47:50.655Z,-4.40
2019-01-24T02:50:21.185Z,-4.40
2019-01-24T02:52:49.895Z,-4.40
2019-01-24T02:55:18.619Z,-4.30
2019-01-24T02:57:47.258Z,-4.30
2019-01-24T03:00:20.728Z,-4.30
2019-01-24T03:02:49.729Z,-4.30
2019-01-24T03:05:19.956Z,-4.30
2019-01-24T03:07:49.260Z,-4.30
2019-01-24T03:10:17.992Z,-4.30
2019-01-24T03:12:46.713Z,-4.30
2019-01-24T03:15:20.113Z,-4.30
2019-01-24T03:17:48.748Z,-4.30
2019-01-24T03:20:17.984Z,-4.30
2019-01-24T03:22:46.924Z,-4.30
2019-01-24T03:25:17.360Z,-4.30
2019-01-24T03:27:46.010Z,-4.30
2019-01-24T03:30:17.103Z,-4.30
2019-01-24T03:32:45.679Z,-4.30
2019-01-24T03:35:23.467Z,-4.30
2019-01-24T03:37:52.111Z,-4.30
2019-01-24T03:40:20.704Z,-4.30
2019-01-24T03:42:49.345Z,-4.30
2019-01-24T03:45:18.536Z,-4.20
2019-01-24T03:47:47.183Z,-4.20
2019-01-24T03:50:17.605Z,-4.20
2019-01-24T03:52:46.262Z,-4.20
2019-01-24T03:55:16.591Z,-4.20
2019-01-24T03:57:45.235Z,-4.20
2019-01-24T04:00:19.159Z,-4.20
2019-01-24T04:02:47.872Z,-4.20
2019-01-24T04:05:16.904Z,-4.20
2019-01-24T04:07:45.539Z,-4.20
2019-01-24T04:10:16.187Z,-4.20
2019-01-24T04:12:45.022Z,-4.20
2019-01-24T04:15:19.117Z,-4.20
2019-01-24T04:17:47.836Z,-4.10
2019-01-24T04:20:16.872Z,-4.20
2019-01-24T04:22:45.523Z,-4.10
2019-01-24T04:25:14.269Z,-4.10
2019-01-24T04:27:42.840Z,-4.10
2019-01-24T04:30:14.440Z,-4.10
2019-01-24T04:32:43.018Z,-4.10
2019-01-24T04:35:19.424Z,-4.10
2019-01-24T04:37:42.542Z,-4.10
2019-01-24T04:40:13.945Z,-4.10
2019-01-24T04:42:42.595Z,-4.10
2019-01-24T04:45:13.697Z,-4.10
2019-01-24T04:47:42.341Z,-4.00
2019-01-24T04:50:13.292Z,-4.00
2019-01-24T04:52:41.939Z,-4.00
2019-01-24T04:55:12.868Z,-4.00
2019-01-24T04:57:41.518Z,-4.00
2019-01-24T05:00:27.720Z,-4.00
2019-01-24T05:02:56.360Z,-4.00
2019-01-24T05:05:28.085Z,-4.00
2019-01-24T05:07:55.244Z,-4.00
2019-01-24T05:10:23.835Z,-4.00
2019-01-24T05:12:52.405Z,-4.00
2019-01-24T05:15:21.070Z,-4.00
2019-01-24T05:17:49.645Z,-4.00
2019-01-24T05:20:18.237Z,-3.90
2019-01-24T05:22:46.877Z,-3.90
2019-01-24T05:25:17.214Z,-3.90
2019-01-24T05:27:45.775Z,-3.90
2019-01-24T05:30:17.479Z,-3.90
2019-01-24T05:32:46.055Z,-3.90
2019-01-24T05:35:14.696Z,-3.90
2019-01-24T05:37:43.568Z,-3.90
2019-01-24T05:40:12.206Z,-3.90
2019-01-24T05:42:40.879Z,-3.90
2019-01-24T05:45:12.287Z,-3.90
2019-01-24T05:47:40.893Z,-3.90
2019-01-24T05:50:11.307Z,-3.90
2019-01-24T05:52:39.896Z,-3.90
2019-01-24T05:55:10.507Z,-3.90
2019-01-24T05:57:39.118Z,-3.90
2019-01-24T06:00:10.888Z,-3.90
2019-01-24T06:02:39.589Z,-3.90
2019-01-24T06:05:10.598Z,-3.80
2019-01-24T06:07:39.190Z,-3.80
2019-01-24T06:10:13.584Z,-3.80
2019-01-24T06:12:42.181Z,-3.80
2019-01-24T06:15:13.465Z,-3.80
2019-01-24T06:17:42.064Z,-3.80
2019-01-24T06:20:11.380Z,-3.80
2019-01-24T06:22:39.972Z,-3.80
2019-01-24T06:25:11.513Z,-3.80
2019-01-24T06:27:40.156Z,-3.80
2019-01-24T06:30:14.731Z,-3.80
2019-01-24T06:32:43.325Z,-3.80
2019-01-24T06:35:12.036Z,-3.80
2019-01-24T06:37:40.635Z,-3.80
2019-01-24T06:40:11.850Z,-3.80
2019-01-24T06:42:40.440Z,-3.80
2019-01-24T06:45:12.452Z,-3.80
2019-01-24T06:47:41.050Z,-3.80
2019-01-24T06:50:11.956Z,-3.80
2019-01-24T06:52:40.624Z,-3.80
2019-01-24T06:55:12.300Z,-3.80
2019-01-24T06:57:40.911Z,-3.80
2019-01-24T07:00:17.811Z,-3.80
2019-01-24T07:02:46.401Z,-3.80
2019-01-24T07:05:15.942Z,-3.80
2019-01-24T07:07:44.680Z,-3.70
2019-01-24T07:10:15.496Z,-3.70
2019-01-24T07:12:44.096Z,-3.80
2019-01-24T07:15:15.373Z,-3.70
2019-01-24T07:17:43.960Z,-3.70
2019-01-24T07:20:14.471Z,-3.70
2019-01-24T07:22:43.133Z,-3.70
2019-01-24T07:25:20.251Z,-3.70
2019-01-24T07:27:48.840Z,-3.70
2019-01-24T07:30:19.251Z,-3.70
2019-01-24T07:32:47.918Z,-3.70
2019-01-24T07:35:18.029Z,-3.70
2019-01-24T07:37:46.696Z,-3.70
2019-01-24T07:40:17.100Z,-3.70
2019-01-24T07:42:45.762Z,-3.70
2019-01-24T07:45:35.428Z,-3.70
2019-01-24T07:48:04.192Z,-3.70
2019-01-24T07:50:32.769Z,-3.70
2019-01-24T07:53:01.511Z,-3.60
2019-01-24T07:55:30.069Z,-3.60
2019-01-24T07:57:58.664Z,-3.60
2019-01-24T08:00:31.040Z,-3.60
2019-01-24T08:02:59.637Z,-3.60
2019-01-24T08:05:30.244Z,-3.60
2019-01-24T08:07:58.840Z,-3.60
2019-01-24T08:10:27.476Z,-3.60
2019-01-24T08:12:56.077Z,-3.60
2019-01-24T08:15:25.285Z,-3.60
2019-01-24T08:17:53.875Z,-3.60
2019-01-24T08:20:27.477Z,-3.60
2019-01-24T08:22:56.747Z,-3.50
2019-01-24T08:25:25.379Z,-3.50
2019-01-24T08:27:53.970Z,-3.50
2019-01-24T08:30:28.176Z,-3.50
2019-01-24T08:32:56.848Z,-3.50
2019-01-24T08:35:25.557Z,-3.50
2019-01-24T08:37:54.159Z,-3.50
2019-01-24T08:40:23.970Z,-3.40
2019-01-24T08:42:52.933Z,-3.40
2019-01-24T08:45:21.503Z,-3.40
2019-01-24T08:47:50.440Z,-3.40
2019-01-24T08:50:21.619Z,-3.40
2019-01-24T08:52:50.292Z,-3.40
2019-01-24T08:55:27.321Z,-3.30
2019-01-24T08:57:55.917Z,-3.30
2019-01-24T09:00:24.562Z,-3.30
2019-01-24T09:02:53.282Z,-3.30
2019-01-24T09:05:21.929Z,-3.30
2019-01-24T09:07:50.525Z,-3.20
2019-01-24T09:10:28.128Z,-3.20
2019-01-24T09:12:56.864Z,-3.20
2019-01-24T09:15:26.076Z,-3.20
2019-01-24T09:17:54.670Z,-3.10
2019-01-24T09:20:23.515Z,-3.10
2019-01-24T09:22:55.306Z,-3.10
2019-01-24T09:25:22.400Z,-3.00
2019-01-24T09:27:50.992Z,-3.00
2019-01-24T09:30:22.376Z,-2.90
2019-01-24T09:32:50.974Z,-2.90
2019-01-24T09:35:19.679Z,-2.90
2019-01-24T09:37:48.348Z,-2.80
2019-01-24T09:40:18.959Z,-2.80
2019-01-24T09:42:47.563Z,-2.70
2019-01-24T09:45:19.152Z,-2.70
2019-01-24T09:47:47.815Z,-2.70
2019-01-24T09:50:21.840Z,-2.70
2019-01-24T09:52:50.500Z,-2.60
2019-01-24T09:55:19.140Z,-2.60
2019-01-24T09:57:47.745Z,-2.60
2019-01-24T10:00:31.124Z,-2.60
2019-01-24T10:03:00.053Z,-2.50
2019-01-24T10:05:28.624Z,-2.50
2019-01-24T10:07:57.217Z,-2.50
2019-01-24T10:10:27.528Z,-2.50
2019-01-24T10:12:57.068Z,-2.40
2019-01-24T10:15:25.881Z,-2.40
2019-01-24T10:17:54.539Z,-2.40
2019-01-24T10:20:24.951Z,-2.40
2019-01-24T10:22:53.622Z,-2.30
2019-01-24T10:25:33.820Z,-2.30
2019-01-24T10:28:02.483Z,-2.30
2019-01-24T10:30:31.137Z,-2.30
2019-01-24T10:32:59.795Z,-2.30
2019-01-24T10:35:28.365Z,-2.30
2019-01-24T10:37:56.956Z,-2.20
2019-01-24T10:40:33.237Z,-2.30
2019-01-24T10:43:01.903Z,-2.30
2019-01-24T10:45:30.479Z,-2.30
2019-01-24T10:47:59.345Z,-2.20
2019-01-24T10:50:28.945Z,-2.20
2019-01-24T10:52:57.535Z,-2.20
2019-01-24T10:55:27.415Z,-2.20
2019-01-24T10:57:58.156Z,-2.20
2019-01-24T11:00:32.611Z,-2.20
2019-01-24T11:03:02.748Z,-2.20
2019-01-24T11:05:31.393Z,-2.20
2019-01-24T11:07:59.985Z,-2.20
2019-01-24T11:10:28.623Z,-2.20
2019-01-24T11:12:57.215Z,-2.20
2019-01-24T11:15:26.227Z,-2.20
2019-01-24T11:17:54.801Z,-2.20
2019-01-24T11:20:23.535Z,-2.20
2019-01-24T11:22:52.172Z,-2.20
2019-01-24T11:25:24.928Z,-2.20
2019-01-24T11:27:53.501Z,-2.10
2019-01-24T11:30:29.806Z,-2.10
2019-01-24T11:32:58.544Z,-2.10
2019-01-24T11:35:33.021Z,-2.10
2019-01-24T11:38:01.594Z,-2.00
2019-01-24T11:40:30.260Z,-2.10
2019-01-24T11:42:58.900Z,-2.00
2019-01-24T11:45:33.227Z,-2.00
2019-01-24T11:48:01.875Z,-2.00
2019-01-24T11:50:30.483Z,-2.00
2019-01-24T11:52:59.044Z,-2.00
2019-01-24T11:55:27.708Z,-1.90
2019-01-24T11:57:56.284Z,-1.90
2019-01-24T12:00:34.719Z,-1.90
2019-01-24T12:03:03.360Z,-1.90
2019-01-24T12:05:31.956Z,-1.90
2019-01-24T12:08:00.532Z,-1.80
2019-01-24T12:10:30.374Z,-1.80
2019-01-24T12:12:59.009Z,-1.80
2019-01-24T12:15:29.449Z,-1.80
2019-01-24T12:17:58.038Z,-1.80
2019-01-24T12:20:26.769Z,-1.80
2019-01-24T12:22:55.718Z,-1.80
2019-01-24T12:25:24.376Z,-1.80
2019-01-24T12:27:53.219Z,-1.80
2019-01-24T12:30:24.052Z,-1.80
2019-01-24T12:32:52.698Z,-1.80
2019-01-24T12:35:21.360Z,-1.80
2019-01-24T12:37:49.935Z,-1.80
2019-01-24T12:40:18.530Z,-1.80
2019-01-24T12:42:47.108Z,-1.80
2019-01-24T12:45:24.392Z,-1.80
2019-01-24T12:47:52.968Z,-1.80
2019-01-24T12:50:21.633Z,-1.80
2019-01-24T12:52:50.208Z,-1.80
2019-01-24T12:55:18.884Z,-1.80
2019-01-24T12:57:47.454Z,-1.80
2019-01-24T13:00:23.900Z,-1.80
2019-01-24T13:02:52.663Z,-1.90
2019-01-24T13:05:21.420Z,-1.90
2019-01-24T13:07:49.992Z,-1.90
2019-01-24T13:10:21.393Z,-1.90
2019-01-24T13:12:50.337Z,-1.90
2019-01-24T13:15:21.472Z,-1.90
2019-01-24T13:17:50.047Z,-1.90
2019-01-24T13:20:18.708Z,-2.00
2019-01-24T13:22:47.283Z,-2.00
2019-01-24T13:25:18.420Z,-2.00
2019-01-24T13:27:47.038Z,-2.00
2019-01-24T13:30:21.353Z,-2.00
2019-01-24T13:32:49.992Z,-2.00
2019-01-24T13:35:18.724Z,-2.00
2019-01-24T13:37:47.365Z,-2.00
2019-01-24T13:40:18.300Z,-2.00
2019-01-24T13:42:46.876Z,-2.00
2019-01-24T13:45:18.280Z,-2.00
2019-01-24T13:47:47.195Z,-2.00
2019-01-24T13:50:17.937Z,-2.00
2019-01-24T13:52:46.579Z,-2.00
2019-01-24T13:55:15.318Z,-2.10
2019-01-24T13:57:43.963Z,-2.10
2019-01-24T14:00:24.491Z,-2.00
2019-01-24T14:03:02.413Z,-2.10
2019-01-24T14:05:31.009Z,-2.10
2019-01-24T14:07:59.583Z,-2.10
2019-01-24T14:10:28.184Z,-2.10
2019-01-24T14:12:56.759Z,-2.10
2019-01-24T14:15:25.417Z,-2.10
2019-01-24T14:17:53.996Z,-2.10
2019-01-24T14:20:22.928Z,-2.10
2019-01-24T14:22:51.635Z,-2.20
2019-01-24T14:25:23.607Z,-2.20
2019-01-24T14:27:52.308Z,-2.20
2019-01-24T14:30:25.448Z,-2.20
2019-01-24T14:32:54.558Z,-2.20
2019-01-24T14:35:23.292Z,-2.20
2019-01-24T14:37:52.080Z,-2.20
2019-01-24T14:40:20.812Z,-2.20
2019-01-24T14:42:49.857Z,-2.20
2019-01-24T14:45:24.223Z,-2.30
2019-01-24T14:47:53.127Z,-2.30
2019-01-24T14:50:27.559Z,-2.30
2019-01-24T14:52:56.768Z,-2.30
2019-01-24T14:55:25.746Z,-2.30
2019-01-24T14:57:54.612Z,-2.30
2019-01-24T15:00:26.512Z,-2.30
2019-01-24T15:02:55.420Z,-2.40
2019-01-24T15:05:24.813Z,-2.40
2019-01-24T15:07:53.728Z,-2.40
2019-01-24T15:10:22.786Z,-2.40
2019-01-24T15:12:53.651Z,-2.40
2019-01-24T15:15:23.588Z,-2.40
2019-01-24T15:17:52.640Z,-2.40
2019-01-24T15:20:22.194Z,-2.40
2019-01-24T15:22:51.004Z,-2.40
2019-01-24T15:25:22.312Z,-2.40
2019-01-24T15:27:51.232Z,-2.50
2019-01-24T15:30:25.383Z,-2.50
2019-01-24T15:32:54.300Z,-2.50
2019-01-24T15:35:23.556Z,-2.50
2019-01-24T15:37:54.728Z,-2.50
2019-01-24T15:40:26.737Z,-2.50
2019-01-24T15:42:55.652Z,-2.50
2019-01-24T15:45:24.687Z,-2.60
2019-01-24T15:47:53.712Z,-2.60
2019-01-24T15:50:23.955Z,-2.60
2019-01-24T15:52:52.863Z,-2.60
2019-01-24T15:55:21.928Z,-2.60
2019-01-24T15:57:50.848Z,-2.60
2019-01-24T16:00:22.460Z,-2.70
2019-01-24T16:02:52.029Z,-2.70
2019-01-24T16:05:21.191Z,-2.70
2019-01-24T16:07:50.336Z,-2.70
2019-01-24T16:10:21.660Z,-2.70
2019-01-24T16:12:50.989Z,-2.70
2019-01-24T16:15:28.678Z,-2.70
2019-01-24T16:17:58.262Z,-2.80
2019-01-24T16:20:29.105Z,-2.80
2019-01-24T16:22:58.244Z,-2.80
2019-01-24T16:25:29.577Z,-2.80
2019-01-24T16:27:58.489Z,-2.80
2019-01-24T16:30:29.871Z,-2.80
2019-01-24T16:32:59.187Z,-2.80
2019-01-24T16:35:28.756Z,-2.90
2019-01-24T16:37:58.201Z,-2.90
2019-01-24T16:40:28.832Z,-2.90
2019-01-24T16:42:58.270Z,-2.90
2019-01-24T16:45:30.776Z,-2.90
2019-01-24T16:47:59.695Z,-2.90
2019-01-24T16:50:29.033Z,-2.90
2019-01-24T16:52:58.102Z,-2.90
2019-01-24T16:55:27.420Z,-2.90
2019-01-24T16:57:56.713Z,-2.90
2019-01-24T17:00:31.548Z,-2.90
2019-01-24T17:03:01.453Z,-2.90
2019-01-24T17:05:31.218Z,-3.00
2019-01-24T17:08:00.775Z,-3.00
2019-01-24T17:10:30.491Z,-3.00
2019-01-24T17:12:59.884Z,-3.00
2019-01-24T17:15:29.327Z,-3.00
2019-01-24T17:17:58.668Z,-3.00
2019-01-24T17:20:29.509Z,-3.00
2019-01-24T17:22:59.651Z,-3.00
2019-01-24T17:25:32.695Z,-3.10
2019-01-24T17:28:02.543Z,-3.10
2019-01-24T17:30:34.948Z,-3.10
2019-01-24T17:33:06.246Z,-3.10
2019-01-24T17:35:35.908Z,-3.10
2019-01-24T17:38:05.505Z,-3.20
2019-01-24T17:40:35.907Z,-3.20
2019-01-24T17:43:06.445Z,-3.20
2019-01-24T17:45:35.575Z,-3.20
2019-01-24T17:48:06.167Z,-3.20
2019-01-24T17:50:35.556Z,-3.20
2019-01-24T17:53:05.008Z,-3.20
2019-01-24T17:55:36.720Z,-3.20
2019-01-24T17:58:07.712Z,-3.20
2019-01-24T18:00:38.796Z,-3.20
2019-01-24T18:03:08.932Z,-3.20
2019-01-24T18:05:38.349Z,-3.20
2019-01-24T18:08:08.395Z,-3.20
2019-01-24T18:10:38.469Z,-3.20
2019-01-24T18:13:08.366Z,-3.20
2019-01-24T18:15:38.792Z,-3.20
2019-01-24T18:18:11.052Z,-3.20
2019-01-24T18:20:41.292Z,-3.20
2019-01-24T18:23:11.928Z,-3.20
2019-01-24T18:25:42.131Z,-3.20
2019-01-24T18:28:12.894Z,-3.20
2019-01-24T18:30:43.387Z,-3.20
2019-01-24T18:33:13.764Z,-3.20
2019-01-24T18:35:43.639Z,-3.20
2019-01-24T18:38:13.777Z,-3.20
2019-01-24T18:40:43.876Z,-3.20
2019-01-24T18:43:16.247Z,-3.20
2019-01-24T18:45:51.383Z,-3.20
2019-01-24T18:48:21.624Z,-3.20
2019-01-24T18:50:51.732Z,-3.20
2019-01-24T18:53:21.972Z,-3.20
2019-01-24T18:55:52.180Z,-3.20
2019-01-24T18:58:22.623Z,-3.20
2019-01-24T19:00:53.124Z,-3.20
2019-01-24T19:03:23.375Z,-3.20
2019-01-24T19:05:53.530Z,-3.20
2019-01-24T19:08:23.778Z,-3.20
2019-01-24T19:10:53.870Z,-3.20
2019-01-24T19:13:24.056Z,-3.20
2019-01-24T19:15:53.848Z,-3.20
2019-01-24T19:18:24.204Z,-3.20
2019-01-24T19:20:54.696Z,-3.20
2019-01-24T19:23:25.353Z,-3.20
2019-01-24T19:25:56.201Z,-3.20
2019-01-24T19:28:27.025Z,-3.20
2019-01-24T19:30:57.736Z,-3.20
2019-01-24T19:33:28.595Z,-3.20
2019-01-24T19:36:00.431Z,-3.20
2019-01-24T19:38:37.540Z,-3.20
2019-01-24T19:41:08.044Z,-3.20
2019-01-24T19:43:38.804Z,-3.20
2019-01-24T19:46:09.415Z,-3.20
2019-01-24T19:48:39.860Z,-3.20
2019-01-24T19:51:10.764Z,-3.20
2019-01-24T19:53:41.424Z,-3.30
2019-01-24T19:56:11.736Z,-3.30
2019-01-24T19:58:42.401Z,-3.30
2019-01-24T20:01:12.891Z,-3.30
2019-01-24T20:03:43.449Z,-3.30
2019-01-24T20:06:13.956Z,-3.30
2019-01-24T20:08:44.609Z,-3.30
2019-01-24T20:11:14.932Z,-3.30
2019-01-24T20:13:45.251Z,-3.30
2019-01-24T20:16:15.474Z,-3.30
2019-01-24T20:18:46.324Z,-3.30
2019-01-24T20:21:16.985Z,-3.30
2019-01-24T20:23:47.276Z,-3.30
2019-01-24T20:26:17.675Z,-3.30
2019-01-24T20:28:47.934Z,-3.30
2019-01-24T20:31:18.124Z,-3.30
2019-01-24T20:33:48.261Z,-3.30
2019-01-24T20:36:18.563Z,-3.30
2019-01-24T20:38:48.809Z,-3.30
2019-01-24T20:41:19.624Z,-3.30
2019-01-24T20:43:49.761Z,-3.30
2019-01-24T20:46:20.169Z,-3.30
2019-01-24T20:48:50.615Z,-3.30
2019-01-24T20:51:20.868Z,-3.40
2019-01-24T20:53:51.290Z,-3.40
2019-01-24T20:56:21.567Z,-3.40
2019-01-24T20:58:51.907Z,-3.40
2019-01-24T21:01:22.120Z,-3.40
2019-01-24T21:03:55.478Z,-3.40
2019-01-24T21:06:23.890Z,-3.40
2019-01-24T21:08:54.133Z,-3.40
2019-01-24T21:11:23.722Z,-3.40
2019-01-24T21:13:53.861Z,-3.40
2019-01-24T21:16:23.957Z,-3.40
2019-01-24T21:18:53.687Z,-3.40
2019-01-24T21:21:23.079Z,-3.40
2019-01-24T21:23:51.809Z,-3.40
2019-01-24T21:26:20.516Z,-3.40
2019-01-24T21:28:50.275Z,-3.40
2019-01-24T21:31:19.187Z,-3.40
2019-01-24T21:33:48.983Z,-3.40
2019-01-24T21:36:18.127Z,-3.40
2019-01-24T21:38:47.288Z,-3.50
2019-01-24T21:41:16.409Z,-3.50
2019-01-24T21:43:45.484Z,-3.50
2019-01-24T21:46:14.472Z,-3.50
2019-01-24T21:48:43.404Z,-3.50
2019-01-24T21:51:12.120Z,-3.50
2019-01-24T21:53:41.850Z,-3.50
2019-01-24T21:56:10.759Z,-3.50
2019-01-24T21:58:39.566Z,-3.50
2019-01-24T22:01:08.275Z,-3.50
2019-01-24T22:03:37.012Z,-3.50
2019-01-24T22:06:05.723Z,-3.50
2019-01-24T22:08:34.447Z,-3.50
2019-01-24T22:11:03.023Z,-3.50
2019-01-24T22:13:31.612Z,-3.50
2019-01-24T22:16:00.254Z,-3.50
2019-01-24T22:18:28.844Z,-3.50
2019-01-24T22:20:57.411Z,-3.60
2019-01-24T22:23:26.003Z,-3.60
2019-01-24T22:25:54.576Z,-3.60
2019-01-24T22:28:23.169Z,-3.60
2019-01-24T22:30:52.717Z,-3.60
2019-01-24T22:33:21.324Z,-3.60
2019-01-24T22:35:49.892Z,-3.60
2019-01-24T22:38:18.479Z,-3.60
2019-01-24T22:40:47.052Z,-3.60
2019-01-24T22:43:15.704Z,-3.60
2019-01-24T22:45:44.298Z,-3.60
2019-01-24T22:48:12.933Z,-3.60
2019-01-24T22:50:41.536Z,-3.60
2019-01-24T22:53:10.099Z,-3.60
2019-01-24T22:55:38.711Z,-3.60
2019-01-24T22:58:07.602Z,-3.70
2019-01-24T23:00:53.715Z,-3.70
2019-01-24T23:03:37.252Z,-3.60
2019-01-24T23:06:06.064Z,-3.70
2019-01-24T23:08:34.792Z,-3.70
2019-01-24T23:11:03.431Z,-3.70
2019-01-24T23:13:32.005Z,-3.70
2019-01-24T23:16:00.597Z,-3.70
2019-01-24T23:18:29.168Z,-3.70
2019-01-24T23:20:57.764Z,-3.70
2019-01-24T23:23:26.336Z,-3.70
2019-01-24T23:25:54.928Z,-3.70
2019-01-24T23:28:23.507Z,-3.70
2019-01-24T23:30:52.096Z,-3.70
2019-01-24T23:33:20.693Z,-3.70
2019-01-24T23:35:49.286Z,-3.70
2019-01-24T23:38:17.932Z,-3.70
2019-01-24T23:40:46.516Z,-3.70
2019-01-24T23:43:15.080Z,-3.70
2019-01-24T23:45:43.680Z,-3.70
2019-01-24T23:48:12.254Z,-3.70
2019-01-24T23:50:40.851Z,-3.70
2019-01-24T23:53:09.412Z,-3.70
2019-01-24T23:55:38.072Z,-3.70
2019-01-24T23:58:06.710Z,-3.70
